Time;durP1;ratioP1;P1;durP2;ratioP2;P2;SDS_P1;SDS_P2;PMS_P1;PMS_P2;Temp;Humidity;BMP_temperature;BMP_pressure;BME280_temperature;BME280_humidity;BME280_pressure;Samples;Min_cycle;Max_cycle;Signal;HPM_P1;HPM_P2
2022/12/18 00:01:22;;;;;;;22.65;12.10;;;;;;;1.15;100.00;93322.25;5060754;28;20109;-80
2022/12/18 00:03:48;;;;;;;20.90;10.77;;;;;;;1.14;100.00;93318.09;5059916;28;20029;-79
2022/12/18 00:06:15;;;;;;;17.63;11.07;;;;;;;1.19;100.00;93326.00;5042011;28;20040;-80
2022/12/18 00:08:43;;;;;;;19.58;11.32;;;;;;;1.22;100.00;93328.19;5060659;28;20049;-79
2022/12/18 00:11:14;;;;;;;21.40;11.60;;;;;;;1.17;100.00;93322.84;5061037;28;20095;-79
2022/12/18 00:13:41;;;;;;;20.38;10.75;;;;;;;1.24;100.00;93341.66;5042921;28;20087;-79
2022/12/18 00:16:09;;;;;;;19.45;10.85;;;;;;;1.26;100.00;93352.53;5059488;28;20120;-79
2022/12/18 00:18:35;;;;;;;18.90;11.25;;;;;;;1.28;100.00;93355.72;5041835;28;20031;-79
2022/12/18 00:21:02;;;;;;;22.77;11.43;;;;;;;1.30;100.00;93355.50;5059352;28;20025;-79
2022/12/18 00:23:29;;;;;;;22.38;11.10;;;;;;;1.30;100.00;93352.94;5060396;28;20060;-79
2022/12/18 00:26:02;;;;;;;17.35;10.50;;;;;;;1.31;100.00;93345.00;5041951;28;20112;-79
2022/12/18 00:28:30;;;;;;;20.65;11.65;;;;;;;1.31;100.00;93347.56;5024559;28;20076;-79
2022/12/18 00:31:03;;;;;;;21.33;12.07;;;;;;;1.32;100.00;93350.94;5042120;28;20037;-79
2022/12/18 00:33:48;;;;;;;18.48;10.95;;;;;;;1.31;100.00;93357.91;5042742;28;20037;-78
2022/12/18 00:36:15;;;;;;;18.08;10.55;;;;;;;1.32;100.00;93363.84;5060985;28;20033;-79
2022/12/18 00:38:41;;;;;;;17.38;9.68;;;;;;;1.30;100.00;93358.88;5059417;28;20487;-78
2022/12/18 00:41:10;;;;;;;18.63;9.07;;;;;;;1.30;100.00;93360.66;5060382;28;20047;-79
2022/12/18 00:43:39;;;;;;;19.80;9.57;;;;;;;1.30;100.00;93366.63;5042395;28;20037;-79
2022/12/18 00:46:05;;;;;;;16.40;8.57;;;;;;;1.30;100.00;93371.00;5042190;28;20036;-79
2022/12/18 00:48:33;;;;;;;15.32;8.68;;;;;;;1.29;100.00;93370.19;5060491;28;20434;-79
2022/12/18 00:50:58;;;;;;;14.45;8.85;;;;;;;1.29;100.00;93370.19;5060265;28;20032;-79
2022/12/18 00:53:24;;;;;;;17.27;9.13;;;;;;;1.30;100.00;93376.94;5060819;28;20458;-79
2022/12/18 00:55:49;;;;;;;16.42;9.52;;;;;;;1.28;100.00;93368.59;5059859;28;20037;-78
2022/12/18 00:58:16;;;;;;;19.27;9.40;;;;;;;1.32;100.00;93372.34;5041678;28;20037;-78
2022/12/18 01:00:42;;;;;;;16.15;9.77;;;;;;;1.34;100.00;93383.25;5041779;28;20104;-78
2022/12/18 01:03:13;;;;;;;15.55;9.48;;;;;;;1.35;100.00;93378.88;5059284;28;20056;-79
2022/12/18 01:05:40;;;;;;;18.42;9.93;;;;;;;1.33;100.00;93384.28;5041635;28;20037;-78
2022/12/18 01:08:06;;;;;;;16.48;9.68;;;;;;;1.35;100.00;93387.44;5059498;28;20099;-79
2022/12/18 01:10:31;;;;;;;17.00;10.10;;;;;;;1.38;100.00;93381.06;5040777;28;20029;-78
2022/12/18 01:12:57;;;;;;;14.75;9.27;;;;;;;1.30;100.00;93384.66;5041517;28;20112;-79
2022/12/18 01:15:23;;;;;;;18.10;9.80;;;;;;;1.31;100.00;93386.28;5059173;28;20037;-78
2022/12/18 01:18:07;;;;;;;18.17;10.10;;;;;;;1.33;100.00;93392.00;5040714;28;20060;-79
2022/12/18 01:20:33;;;;;;;16.45;9.27;;;;;;;1.32;100.00;93400.72;5059091;28;20083;-78
2022/12/18 01:22:58;;;;;;;16.90;9.57;;;;;;;1.30;100.00;93402.72;5040865;28;20033;-78
2022/12/18 01:25:28;;;;;;;15.45;9.13;;;;;;;1.27;100.00;93400.56;5042093;28;20040;-78
2022/12/18 01:27:53;;;;;;;16.25;9.68;;;;;;;1.27;100.00;93400.56;5024414;28;20049;-79
2022/12/18 01:30:19;;;;;;;16.85;9.88;;;;;;;1.27;100.00;93408.31;5024974;28;20091;-78
2022/12/18 01:32:44;;;;;;;14.75;9.23;;;;;;;1.26;100.00;93411.88;5040278;28;20033;-78
2022/12/18 01:35:10;;;;;;;16.60;8.73;;;;;;;1.27;100.00;93413.47;5058626;28;20060;-79
2022/12/18 01:37:36;;;;;;;17.98;9.80;;;;;;;1.27;100.00;93417.84;5024582;28;20096;-78
2022/12/18 01:40:01;;;;;;;15.00;9.25;;;;;;;1.27;100.00;93423.78;5040833;28;20504;-78
2022/12/18 01:42:27;;;;;;;15.07;9.23;;;;;;;1.28;100.00;93422.00;5041107;28;20048;-78
2022/12/18 01:45:11;;;;;;;16.35;9.35;;;;;;;1.28;100.00;93419.41;5059441;28;20052;-79
2022/12/18 01:47:38;;;;;;;20.23;9.90;;;;;;;1.27;100.00;93423.00;5059900;28;20048;-78
2022/12/18 01:50:13;;;;;;;15.88;8.85;;;;;;;1.28;100.00;93424.56;5041283;28;20045;-79
2022/12/18 01:52:42;;;;;;;17.13;9.73;;;;;;;1.25;100.00;93429.16;5040747;28;20088;-79
2022/12/18 01:55:10;;;;;;;15.80;9.40;;;;;;;1.24;100.00;93435.31;5058893;28;20082;-79
2022/12/18 01:57:39;;;;;;;15.88;9.73;;;;;;;1.22;100.00;93434.72;5040564;28;20061;-78
2022/12/18 02:00:10;;;;;;;17.35;8.65;;;;;;;1.21;100.00;93434.91;5058771;28;20033;-79
2022/12/18 02:02:40;;;;;;;16.40;9.32;;;;;;;1.19;100.00;93419.66;5058810;28;20413;-78
2022/12/18 02:05:07;;;;;;;15.38;8.52;;;;;;;1.20;100.00;93423.03;5040742;28;20047;-78
2022/12/18 02:08:08;;;;;;;14.23;7.82;;;;;;;1.18;100.00;93419.88;5025621;28;20171;-78
2022/12/18 02:10:41;;;;;;;14.10;7.28;;;;;;;1.17;100.00;93418.25;5035216;28;20059;-78
2022/12/18 02:13:30;;;;;;;14.27;8.07;;;;;;;1.11;100.00;93413.94;5020906;28;20092;-78
2022/12/18 02:16:05;;;;;;;17.35;8.15;;;;;;;1.07;100.00;93417.94;5005172;28;20030;-79
2022/12/18 02:18:38;;;;;;;12.88;7.57;;;;;;;1.01;100.00;93417.75;5023541;28;20033;-79
2022/12/18 02:21:37;;;;;;;15.48;7.90;;;;;;;0.96;100.00;93416.78;5058946;28;20111;-79
2022/12/18 02:24:27;;;;;;;14.63;7.63;;;;;;;0.92;100.00;93421.53;5041231;28;20037;-79
2022/12/18 02:26:58;;;;;;;13.52;7.65;;;;;;;0.87;100.00;93423.94;5041939;28;20040;-78
2022/12/18 02:29:32;;;;;;;12.27;7.25;;;;;;;0.82;100.00;93421.97;5041057;28;20033;-78
2022/12/18 02:32:06;;;;;;;13.77;7.40;;;;;;;0.77;100.00;93429.53;5041453;28;20060;-79
2022/12/18 02:34:36;;;;;;;12.73;7.78;;;;;;;0.68;100.00;93422.22;5041628;28;20131;-79
2022/12/18 02:37:07;;;;;;;15.93;8.47;;;;;;;0.73;100.00;93440.44;5041779;28;20554;-79
2022/12/18 02:39:35;;;;;;;15.15;8.27;;;;;;;0.71;100.00;93435.47;5041867;28;20336;-79
2022/12/18 02:42:24;;;;;;;15.60;7.60;;;;;;;0.73;100.00;93445.59;5041625;28;20053;-79
2022/12/18 02:44:51;;;;;;;13.25;8.00;;;;;;;0.75;100.00;93443.63;5041828;28;20032;-79
2022/12/18 02:47:29;;;;;;;14.13;8.20;;;;;;;0.78;100.00;93443.97;5042113;28;20037;-79
2022/12/18 02:50:02;;;;;;;;;;;;;;;0.81;100.00;93441.03;5060010;28;20032;-79
2022/12/18 02:59:43;;;;;;;14.60;8.30;;;;;;;0.91;100.00;93447.53;5031658;28;20101;-79
2022/12/18 03:02:21;;;;;;;14.63;6.95;;;;;;;0.93;100.00;93456.66;5025255;28;20033;-78
2022/12/18 03:04:57;;;;;;;12.43;7.22;;;;;;;0.89;100.00;93459.84;5024830;28;20036;-78
2022/12/18 03:07:42;;;;;;;11.68;6.95;;;;;;;0.84;100.00;93455.28;5040657;28;20035;-78
2022/12/18 03:10:14;;;;;;;11.60;6.70;;;;;;;0.81;100.00;93459.06;5041826;28;20502;-79
2022/12/18 03:12:49;;;;;;;11.63;7.03;;;;;;;0.83;100.00;93466.56;5043153;28;20029;-78
2022/12/18 03:15:52;;;;;;;10.68;6.72;;;;;;;0.82;100.00;93467.59;5025375;28;20037;-79
2022/12/18 03:18:25;;;;;;;10.80;6.43;;;;;;;0.73;100.00;93458.47;5040395;28;20504;-78
2022/12/18 03:20:55;;;;;;;11.07;6.45;;;;;;;0.75;100.00;93466.81;5040026;28;20097;-79
2022/12/18 03:23:27;;;;;;;13.27;6.22;;;;;;;0.74;100.00;93468.56;5041839;28;20402;-78
2022/12/18 03:25:57;;;;;;;15.05;6.97;;;;;;;0.74;100.00;93460.84;5028077;28;20049;-79
2022/12/18 03:28:30;;;;;;;14.65;7.07;;;;;;;0.75;100.00;93461.66;5045536;28;20048;-79
2022/12/18 03:31:08;;;;;;;10.77;6.40;;;;;;;0.74;100.00;93460.06;5063990;28;20075;-79
2022/12/18 03:33:59;;;;;;;12.18;6.45;;;;;;;0.75;100.00;93472.75;5067079;28;20027;-78
2022/12/18 03:36:32;;;;;;;10.18;6.40;;;;;;;0.75;100.00;93471.97;5045007;28;20071;-78
2022/12/18 03:38:58;;;;;;;11.50;6.75;;;;;;;0.75;100.00;93470.19;5061331;28;20033;-78
2022/12/18 03:45:02;;;;;;;11.02;6.40;;;;;;;0.71;100.00;93460.47;5045565;28;20108;-78
2022/12/18 03:47:35;;;;;;;11.38;6.78;;;;;;;0.75;100.00;93471.97;5044840;28;20064;-78
2022/12/18 03:53:18;;;;;;;14.52;7.40;;;;;;;0.80;100.00;93479.88;5044620;28;20123;-79
2022/12/18 03:55:49;;;;;;;10.75;6.10;;;;;;;0.86;100.00;93486.00;5043886;28;20045;-78
2022/12/18 03:58:19;;;;;;;10.57;6.22;;;;;;;0.91;100.00;93481.06;5044296;28;20033;-79
2022/12/18 04:00:56;;;;;;;12.13;6.50;;;;;;;1.10;100.00;93484.56;5044180;28;20037;-78
2022/12/18 04:03:24;;;;;;;12.80;6.97;;;;;;;1.07;100.00;93492.72;5061607;28;20514;-78
2022/12/18 04:09:20;;;;;;;13.25;6.82;;;;;;;1.00;100.00;93485.78;5043348;28;20566;-78
2022/12/18 04:11:47;;;;;;;11.68;7.18;;;;;;;0.99;100.00;93499.69;5026891;28;20079;-78
2022/12/18 04:14:35;;;;;;;12.32;7.15;;;;;;;0.97;100.00;93499.09;5043354;28;20025;-78
2022/12/18 04:17:03;;;;;;;12.65;6.97;;;;;;;0.97;100.00;93500.88;5043242;28;20045;-78
2022/12/18 04:19:31;;;;;;;12.38;6.60;;;;;;;0.96;100.00;93502.63;5043484;28;20056;-79
2022/12/18 04:22:35;;;;;;;13.73;7.30;;;;;;;0.97;100.00;93511.19;5042860;28;20475;-78
2022/12/18 04:25:01;;;;;;;11.63;6.78;;;;;;;0.94;100.00;93509.78;5043382;28;20032;-78
2022/12/18 04:27:34;;;;;;;14.48;7.40;;;;;;;0.91;100.00;93520.50;5027568;28;20060;-78
2022/12/18 04:30:01;;;;;;;11.63;6.97;;;;;;;0.93;100.00;93526.25;5026220;28;20044;-78
2022/12/18 04:32:28;;;;;;;11.65;7.07;;;;;;;0.94;100.00;93524.47;5010244;28;20410;-78
2022/12/18 04:34:54;;;;;;;10.80;6.05;;;;;;;0.95;100.00;93519.13;5041697;28;20040;-78
2022/12/18 04:37:20;;;;;;;11.85;6.75;;;;;;;0.96;100.00;93525.06;5025942;28;20044;-78
2022/12/18 04:39:48;;;;;;;11.50;6.85;;;;;;;0.93;100.00;93531.41;5042610;28;20036;-78
2022/12/18 04:42:20;;;;;;;11.23;6.20;;;;;;;0.94;100.00;93533.00;5042673;28;20048;-78
2022/12/18 04:44:46;;;;;;;10.50;5.72;;;;;;;0.96;100.00;93535.38;5061019;28;20033;-78
2022/12/18 04:47:11;;;;;;;13.50;6.30;;;;;;;0.97;100.00;93537.75;5059702;28;20055;-77
2022/12/18 04:49:37;;;;;;;11.25;5.47;;;;;;;0.97;100.00;93542.91;5037225;28;20045;-77
2022/12/18 04:52:02;;;;;;;9.68;5.47;;;;;;;0.98;100.00;93543.72;5039735;28;20040;-77
2022/12/18 04:54:29;;;;;;;10.10;5.55;;;;;;;0.99;100.00;93550.44;5023765;28;20033;-77
2022/12/18 04:56:54;;;;;;;12.23;6.32;;;;;;;1.00;100.00;93552.81;5059811;28;20498;-77
2022/12/18 04:59:20;;;;;;;11.07;5.68;;;;;;;0.98;100.00;93549.66;5054233;28;20071;-77
2022/12/18 05:01:46;;;;;;;9.38;5.78;;;;;;;1.00;100.00;93550.25;5055129;28;20044;-77
2022/12/18 05:04:11;;;;;;;10.80;5.85;;;;;;;0.99;100.00;93553.81;5069502;28;20041;-78
2022/12/18 05:06:37;;;;;;;9.75;5.55;;;;;;;1.01;100.00;93554.41;5024471;28;20041;-77
2022/12/18 05:09:03;;;;;;;9.85;5.63;;;;;;;1.00;100.00;93563.13;5059963;28;20116;-77
2022/12/18 05:11:29;;;;;;;10.02;5.47;;;;;;;1.04;100.00;93563.53;5057072;28;20043;-77
2022/12/18 05:13:55;;;;;;;10.82;6.05;;;;;;;1.02;100.00;93556.00;5058006;28;20036;-78
2022/12/18 05:16:23;;;;;;;10.73;5.38;;;;;;;1.06;100.00;93555.56;5039818;28;20073;-78
2022/12/18 05:18:48;;;;;;;9.30;5.47;;;;;;;1.06;100.00;93558.16;5057549;28;20029;-78
2022/12/18 05:21:14;;;;;;;11.25;6.18;;;;;;;1.07;100.00;93562.34;5039553;28;20560;-78
2022/12/18 05:23:40;;;;;;;9.50;5.60;;;;;;;1.06;100.00;93565.91;5057744;28;20531;-78
2022/12/18 05:26:07;;;;;;;10.45;5.63;;;;;;;1.05;100.00;93570.25;5039967;28;20029;-78
2022/12/18 05:28:35;;;;;;;11.10;5.75;;;;;;;1.03;100.00;93561.94;5039829;28;20446;-78
2022/12/18 05:31:38;;;;;;;11.57;6.10;;;;;;;1.03;100.00;93578.19;5039810;28;20029;-78
2022/12/18 05:34:04;;;;;;;;;;;;;;;0.99;100.00;93576.22;5057255;28;20095;-77
2022/12/18 05:36:29;;;;;;;11.60;5.70;;;;;;;0.98;100.00;93585.75;5039256;28;19908;-78
2022/12/18 05:39:14;;;;;;;8.80;5.18;;;;;;;0.99;100.00;93589.09;5056856;28;20124;-78
2022/12/18 05:41:39;;;;;;;9.52;5.20;;;;;;;0.97;100.00;93584.16;5022855;28;20548;-77
2022/12/18 05:44:05;;;;;;;9.68;5.65;;;;;;;0.98;100.00;93588.31;5039265;28;20120;-78
2022/12/18 05:47:09;;;;;;;9.63;5.22;;;;;;;0.97;100.00;93589.31;5055823;28;20040;-77
2022/12/18 05:49:35;;;;;;;11.68;5.57;;;;;;;0.97;100.00;93593.69;5056975;28;20033;-78
2022/12/18 05:52:00;;;;;;;9.68;5.35;;;;;;;0.96;100.00;93587.72;5056833;28;20032;-78
2022/12/18 05:54:44;;;;;;;9.55;5.07;;;;;;;0.97;100.00;93585.97;5056023;28;20120;-78
2022/12/18 05:57:10;;;;;;;9.52;5.32;;;;;;;0.96;100.00;93592.88;5056282;28;20079;-78
2022/12/18 05:59:36;;;;;;;11.00;5.72;;;;;;;0.97;100.00;93591.91;5056606;28;20033;-78
2022/12/18 06:02:21;;;;;;;9.85;5.38;;;;;;;0.97;100.00;93594.50;5037879;28;20041;-78
2022/12/18 06:04:46;;;;;;;9.43;5.30;;;;;;;0.97;100.00;93599.66;5037926;28;20041;-78
2022/12/18 06:07:12;;;;;;;9.95;4.80;;;;;;;0.97;100.00;93604.81;5056416;28;20482;-77
2022/12/18 06:10:00;;;;;;;7.70;4.75;;;;;;;0.96;100.00;93608.34;5056118;28;20033;-77
2022/12/18 06:12:26;;;;;;;9.80;5.22;;;;;;;0.96;100.00;93600.63;5056653;28;20491;-78
2022/12/18 06:14:51;;;;;;;11.02;5.40;;;;;;;0.97;100.00;93604.81;5056519;28;20097;-78
2022/12/18 06:17:18;;;;;;;10.38;5.75;;;;;;;0.99;100.00;93612.31;5056022;28;20090;-78
2022/12/18 06:19:43;;;;;;;11.27;5.28;;;;;;;0.99;100.00;93613.13;5055615;28;20036;-77
2022/12/18 06:22:09;;;;;;;14.25;5.85;;;;;;;0.99;100.00;93617.47;5055584;28;20049;-78
2022/12/18 06:24:34;;;;;;;10.55;5.63;;;;;;;0.98;100.00;93621.06;5021308;28;20127;-78
2022/12/18 06:27:19;;;;;;;10.43;6.10;;;;;;;0.97;100.00;93624.66;5018918;28;20123;-77
2022/12/18 06:29:45;;;;;;;11.35;5.57;;;;;;;0.96;100.00;93623.03;5075074;28;20046;-78
2022/12/18 06:32:10;;;;;;;9.48;5.55;;;;;;;0.91;100.00;93626.22;5057173;28;20036;-78
2022/12/18 06:34:40;;;;;;;8.63;4.95;;;;;;;0.93;100.00;93631.97;5076290;28;20103;-78
2022/12/18 06:37:06;;;;;;;9.32;4.70;;;;;;;0.93;100.00;93631.19;5041714;28;20056;-78
2022/12/18 06:39:32;;;;;;;8.02;4.57;;;;;;;0.96;100.00;93639.28;5057563;28;20521;-77
2022/12/18 06:41:58;;;;;;;7.75;4.35;;;;;;;0.93;100.00;93633.75;5075777;28;20044;-78
2022/12/18 06:44:24;;;;;;;6.85;3.72;;;;;;;0.95;100.00;93637.72;5076141;28;20036;-78
2022/12/18 06:46:49;;;;;;;7.53;4.00;;;;;;;1.04;100.00;93644.25;5075598;28;20131;-78
2022/12/18 06:49:17;;;;;;;8.98;4.65;;;;;;;0.96;100.00;93644.44;5076211;28;20522;-78
2022/12/18 06:51:43;;;;;;;9.07;5.03;;;;;;;0.90;100.00;93650.44;5075808;28;20036;-78
2022/12/18 06:54:08;;;;;;;8.25;4.75;;;;;;;0.85;100.00;93647.63;5076314;28;20031;-78
2022/12/18 06:56:34;;;;;;;8.10;4.68;;;;;;;0.82;100.00;93650.59;5058303;28;20049;-78
2022/12/18 06:59:00;;;;;;;9.02;4.72;;;;;;;0.77;100.00;93655.56;5076302;28;20107;-78
2022/12/18 07:01:26;;;;;;;9.40;4.70;;;;;;;0.74;100.00;93653.38;5041841;28;20025;-78
2022/12/18 07:04:10;;;;;;;7.55;4.90;;;;;;;0.70;100.00;93652.16;5076110;28;20047;-78
2022/12/18 07:06:36;;;;;;;7.72;4.10;;;;;;;0.68;100.00;93664.47;5074887;28;20035;-78
2022/12/18 07:09:01;;;;;;;8.00;4.20;;;;;;;0.66;100.00;93669.03;5073686;28;20034;-78
2022/12/18 07:11:27;;;;;;;7.30;3.83;;;;;;;0.62;100.00;93666.03;5055855;28;20098;-77
2022/12/18 07:13:54;;;;;;;9.13;4.38;;;;;;;0.56;100.00;93677.13;5055174;28;20516;-78
2022/12/18 07:16:21;;;;;;;6.88;3.90;;;;;;;0.54;100.00;93679.91;5072902;28;20030;-78
2022/12/18 07:18:47;;;;;;;6.28;3.78;;;;;;;0.55;100.00;93693.59;5073769;28;20036;-77
2022/12/18 07:21:16;;;;;;;7.05;4.07;;;;;;;0.52;100.00;93701.69;5056619;28;20040;-78
2022/12/18 07:23:41;;;;;;;8.43;4.40;;;;;;;0.55;100.00;93704.69;5060997;28;20051;-78
2022/12/18 07:26:10;;;;;;;9.63;4.60;;;;;;;0.57;100.00;93702.72;5072561;28;20369;-78
2022/12/18 07:28:37;;;;;;;8.68;5.30;;;;;;;0.65;100.00;93708.66;5079064;28;20405;-78
2022/12/18 07:31:08;;;;;;;9.40;5.22;;;;;;;0.64;100.00;93714.81;5046780;28;20033;-78
2022/12/18 07:33:34;;;;;;;8.82;4.85;;;;;;;0.65;100.00;93718.97;5072137;28;20028;-79
2022/12/18 07:36:02;;;;;;;9.30;5.15;;;;;;;0.65;100.00;93724.91;5061892;28;20391;-79
2022/12/18 07:38:28;;;;;;;11.68;6.07;;;;;;;0.67;100.00;93724.72;5041739;28;20061;-78
2022/12/18 07:40:54;;;;;;;13.23;6.78;;;;;;;0.76;100.00;93736.44;5044486;28;20130;-78
2022/12/18 07:43:19;;;;;;;16.08;9.82;;;;;;;0.78;100.00;93726.75;5077292;28;20100;-80
2022/12/18 07:45:45;;;;;;;13.52;7.72;;;;;;;0.86;100.00;93729.16;5053842;28;20123;-75
2022/12/18 07:48:10;;;;;;;12.52;6.78;;;;;;;0.92;100.00;93736.06;5037482;28;20048;-76
2022/12/18 07:50:37;;;;;;;10.82;6.22;;;;;;;0.97;100.00;93738.88;5054387;28;20039;-76
2022/12/18 07:53:04;;;;;;;11.90;6.55;;;;;;;1.03;100.00;93748.38;5071915;28;20099;-76
2022/12/18 07:55:31;;;;;;;9.48;5.65;;;;;;;1.03;100.00;93748.38;5053494;28;20044;-75
2022/12/18 07:57:57;;;;;;;10.85;6.13;;;;;;;1.09;100.00;93749.41;5071172;28;20032;-76
2022/12/18 08:00:25;;;;;;;11.82;6.45;;;;;;;1.20;100.00;93753.97;5071150;28;20486;-76
2022/12/18 08:02:51;;;;;;;12.68;6.38;;;;;;;1.31;100.00;93756.97;5071009;28;20552;-76
2022/12/18 08:05:17;;;;;;;10.43;5.97;;;;;;;1.39;100.00;93752.38;5053562;28;20180;-76
2022/12/18 08:07:42;;;;;;;11.63;5.80;;;;;;;1.48;100.00;93758.16;5052792;28;20045;-74
2022/12/18 08:10:08;;;;;;;10.73;6.18;;;;;;;1.59;100.00;93761.94;5073754;28;20131;-76
2022/12/18 08:12:34;;;;;;;10.02;5.53;;;;;;;1.67;100.00;93764.31;5056947;28;20044;-76
2022/12/18 08:14:59;;;;;;;8.48;4.88;;;;;;;1.75;100.00;93761.50;5074254;28;20115;-76
2022/12/18 08:17:25;;;;;;;10.10;5.00;;;;;;;1.79;100.00;93765.28;5057066;28;20040;-77
2022/12/18 08:19:51;;;;;;;7.95;4.38;;;;;;;1.82;100.00;93754.56;5040548;28;20033;-76
2022/12/18 08:22:17;;;;;;;8.93;4.78;;;;;;;2.01;100.00;93767.66;5040389;28;20045;-77
2022/12/18 08:24:42;;;;;;;8.98;4.97;;;;;;;2.06;100.00;93778.16;5040137;28;20033;-76
2022/12/18 08:27:08;;;;;;;24.48;12.52;;;;;;;2.05;100.00;93777.38;5074623;28;20554;-76
2022/12/18 08:29:34;;;;;;;16.50;8.02;;;;;;;2.10;100.00;93771.59;5056796;28;20383;-76
2022/12/18 08:32:00;;;;;;;10.95;5.80;;;;;;;2.09;100.00;93772.56;5056746;28;20040;-76
2022/12/18 08:34:26;;;;;;;25.88;12.43;;;;;;;2.11;100.00;93772.38;5074889;28;20040;-77
2022/12/18 08:36:52;;;;;;;41.22;18.80;;;;;;;2.18;100.00;93778.31;5074909;28;20036;-77
2022/12/18 08:39:18;;;;;;;40.40;18.65;;;;;;;2.23;100.00;93779.31;5055752;28;20048;-76
2022/12/18 08:44:37;;;;;;;24.55;13.35;;;;;;;2.29;100.00;93780.28;5056006;28;20045;-77
2022/12/18 08:44:40;;;;;;;15.82;8.45;;;;;;;2.34;100.00;93782.25;5074191;28;20040;-76
2022/12/18 08:47:06;;;;;;;20.30;10.30;;;;;;;2.37;100.00;93784.47;5040435;28;20037;-76
2022/12/18 08:49:33;;;;;;;16.50;8.70;;;;;;;2.44;100.00;93790.38;5073047;28;20474;-76
2022/12/18 08:51:59;;;;;;;13.60;6.63;;;;;;;2.46;100.00;93790.97;5055959;28;20039;-76
2022/12/18 08:54:25;;;;;;;11.48;6.03;;;;;;;2.54;100.00;93792.53;5055903;28;20040;-76
2022/12/18 08:56:51;;;;;;;13.35;7.10;;;;;;;2.58;100.00;93794.50;5040721;28;20029;-77
2022/12/18 08:59:19;;;;;;;12.57;6.72;;;;;;;2.67;100.00;93790.69;5040029;28;20185;-76
2022/12/18 09:01:45;;;;;;;22.45;10.98;;;;;;;2.75;100.00;93796.63;5073717;28;20037;-76
2022/12/18 09:04:11;;;;;;;34.05;18.30;;;;;;;2.77;100.00;93794.63;5055935;28;20032;-77
2022/12/18 09:06:37;;;;;;;48.17;28.40;;;;;;;2.84;100.00;93803.19;5037526;28;20033;-76
2022/12/18 09:09:04;;;;;;;34.40;18.75;;;;;;;2.95;99.11;93818.03;5074139;28;20045;-77
2022/12/18 09:11:31;;;;;;;7.65;4.07;;;;;;;3.04;97.10;93811.63;5073664;28;20044;-76
2022/12/18 09:13:57;;;;;;;11.32;3.60;;;;;;;2.94;92.43;93813.84;5073149;28;20074;-76
2022/12/18 09:16:24;;;;;;;5.22;2.90;;;;;;;2.92;89.36;93811.47;5073405;28;20051;-77
2022/12/18 09:18:58;;;;;;;5.38;2.90;;;;;;;2.91;86.16;93803.94;5073599;28;20397;-76
2022/12/18 09:21:26;;;;;;;6.47;3.00;;;;;;;3.02;86.12;93807.66;5072131;28;20086;-77
2022/12/18 09:23:53;;;;;;;6.68;3.20;;;;;;;3.06;84.65;93803.66;5038533;28;20037;-77
2022/12/18 09:26:20;;;;;;;6.32;3.05;;;;;;;3.08;85.00;93812.78;5073723;28;20394;-78
2022/12/18 09:28:45;;;;;;;5.93;3.00;;;;;;;3.05;85.67;93802.84;5055561;28;20070;-76
2022/12/18 09:31:13;;;;;;;17.23;7.68;;;;;;;3.16;87.02;93816.16;5073638;28;20115;-77
2022/12/18 09:33:39;;;;;;;11.15;5.57;;;;;;;3.22;86.86;93817.88;5055428;28;20115;-77
2022/12/18 09:36:08;;;;;;;9.55;5.38;;;;;;;3.32;86.05;93813.84;5055740;28;20513;-77
2022/12/18 09:38:34;;;;;;;8.27;4.47;;;;;;;3.83;86.46;93819.88;5055472;28;20032;-77
2022/12/18 09:41:15;;;;;;;8.27;4.68;;;;;;;4.27;83.15;93814.72;5055417;28;20025;-76
2022/12/18 09:44:00;;;;;;;19.60;9.30;;;;;;;4.28;80.23;93817.09;5073219;28;20032;-77
2022/12/18 09:46:30;;;;;;;9.63;5.07;;;;;;;4.33;78.52;93804.28;5073559;28;20507;-77
2022/12/18 09:49:00;;;;;;;6.65;3.03;;;;;;;4.40;79.72;93809.41;5073401;28;20051;-76
2022/12/18 09:51:32;;;;;;;6.68;3.10;;;;;;;4.57;77.66;93814.78;5054758;28;20071;-76
2022/12/18 09:54:03;;;;;;;6.85;3.83;;;;;;;4.95;80.73;93811.16;5072469;28;20129;-77
2022/12/18 09:56:35;;;;;;;9.02;3.60;;;;;;;5.41;79.53;93810.56;5072591;28;20450;-76
2022/12/18 09:59:02;;;;;;;7.68;3.92;;;;;;;5.64;75.77;93801.25;5054305;28;20037;-76
2022/12/18 10:01:30;;;;;;;7.93;4.10;;;;;;;6.08;73.41;93808.78;5038520;28;20130;-76
2022/12/18 10:03:59;;;;;;;6.63;2.90;;;;;;;6.21;67.68;93804.16;5072760;28;20045;-76
2022/12/18 10:06:42;;;;;;;5.50;2.97;;;;;;;5.63;65.30;93797.06;5073232;28;20037;-76
2022/12/18 10:09:09;;;;;;;5.75;3.25;;;;;;;5.82;65.63;93800.38;5038172;28;20036;-76
2022/12/18 10:12:03;;;;;;;7.22;3.40;;;;;;;6.11;66.60;93798.72;5054394;28;20036;-76
2022/12/18 10:14:51;;;;;;;6.80;3.80;;;;;;;6.56;65.05;93805.94;5073353;28;20063;-77
2022/12/18 10:17:51;;;;;;;7.72;3.70;;;;;;;6.80;65.91;93798.88;5057248;28;20244;-78
2022/12/18 10:20:39;;;;;;;7.38;2.80;;;;;;;6.34;65.94;93797.91;5088620;28;20037;-76
2022/12/18 10:23:20;;;;;;;6.10;3.90;;;;;;;5.68;69.25;93799.78;5089196;28;20040;-77
2022/12/18 10:25:53;;;;;;;7.93;4.13;;;;;;;5.49;68.23;93806.84;5065407;28;20040;-77
2022/12/18 10:28:20;;;;;;;8.30;2.80;;;;;;;5.04;69.31;93793.50;5056166;28;20049;-77
2022/12/18 10:30:45;;;;;;;7.35;4.03;;;;;;;5.18;68.06;93789.72;5055650;28;20043;-77
2022/12/18 10:33:18;;;;;;;7.68;3.97;;;;;;;5.14;65.86;93791.97;5022070;28;20053;-77
2022/12/18 10:35:44;;;;;;;;;;;;;;;5.40;63.89;93795.19;5076002;28;20502;-78
2022/12/18 10:38:16;;;;;;;7.40;3.55;;;;;;;5.71;63.97;93793.34;5042663;28;19990;-78
2022/12/18 10:40:48;;;;;;;6.38;3.97;;;;;;;6.32;62.42;93799.16;5077035;28;20047;-77
2022/12/18 10:43:16;;;;;;;6.45;3.30;;;;;;;6.67;59.21;93801.75;5058547;28;20028;-77
2022/12/18 10:45:55;;;;;;;6.07;3.72;;;;;;;6.67;58.82;93801.75;5079812;28;20020;-80
2022/12/18 10:48:22;;;;;;;5.47;3.10;;;;;;;7.11;56.47;93802.06;5078685;28;20032;-77
2022/12/18 10:50:51;;;;;;;8.95;3.17;;;;;;;6.78;57.47;93793.13;5042339;28;20051;-78
2022/12/18 10:53:23;;;;;;;4.65;2.50;;;;;;;6.62;57.16;93793.81;5076133;28;20055;-78
2022/12/18 10:55:50;;;;;;;5.55;2.70;;;;;;;6.20;58.64;93789.56;5076846;28;20044;-77
2022/12/18 10:58:38;;;;;;;5.07;3.08;;;;;;;5.70;61.13;93791.78;5077582;28;20415;-78
2022/12/18 11:01:15;;;;;;;6.82;3.90;;;;;;;5.37;64.24;93806.03;5077343;28;20093;-78
2022/12/18 11:03:50;;;;;;;4.90;2.78;;;;;;;5.58;62.76;93796.94;5081926;28;20128;-78
2022/12/18 11:06:22;;;;;;;8.63;4.55;;;;;;;5.93;62.20;93797.00;5078866;28;20058;-77
2022/12/18 11:09:00;;;;;;;7.68;3.88;;;;;;;6.11;59.79;93803.16;5076626;28;20032;-78
2022/12/18 11:11:26;;;;;;;9.13;3.58;;;;;;;5.93;58.25;93810.00;5077836;28;20032;-78
2022/12/18 11:14:04;;;;;;;9.63;3.30;;;;;;;5.95;56.95;93804.59;5077422;28;20031;-77
2022/12/18 11:16:36;;;;;;;7.68;4.03;;;;;;;5.44;60.50;93814.53;5078534;28;20036;-78
2022/12/18 11:19:35;;;;;;;8.68;4.50;;;;;;;5.06;62.61;93818.22;5060316;28;20099;-77
2022/12/18 11:22:18;;;;;;;8.10;4.70;;;;;;;4.94;65.41;93825.94;5081057;28;20401;-78
2022/12/18 11:24:54;;;;;;;43.97;19.98;;;;;;;5.25;66.59;93818.97;5071478;28;20154;-78
2022/12/18 11:27:21;;;;;;;46.35;24.67;;;;;;;5.51;67.04;93812.59;5071408;28;20024;-77
2022/12/18 11:29:50;;;;;;;9.75;5.47;;;;;;;4.99;63.57;93813.09;5074070;28;20048;-77
2022/12/18 11:32:31;;;;;;;8.40;4.78;;;;;;;4.85;65.24;93816.09;5075284;28;20426;-77
2022/12/18 11:35:23;;;;;;;7.13;4.60;;;;;;;4.82;66.12;93808.72;5078708;28;20032;-77
2022/12/18 11:38:06;;;;;;;8.13;4.60;;;;;;;4.84;63.04;93804.13;5052334;28;20044;-78
2022/12/18 11:40:37;;;;;;;7.10;3.72;;;;;;;5.07;65.77;93809.44;5059427;28;20032;-76
2022/12/18 11:43:24;;;;;;;5.88;3.25;;;;;;;5.08;60.75;93810.22;5056583;28;20662;-79
2022/12/18 11:46:02;;;;;;;8.30;3.25;;;;;;;5.07;57.83;93812.03;5081368;28;20125;-76
2022/12/18 11:48:45;;;;;;;7.90;4.07;;;;;;;5.61;58.36;93804.28;5060524;28;20127;-78
2022/12/18 11:51:34;;;;;;;6.95;3.80;;;;;;;5.91;62.65;93796.41;5043098;28;20064;-79
2022/12/18 11:54:19;;;;;;;7.35;4.22;;;;;;;5.96;62.03;93795.78;5060582;28;20087;-80
2022/12/18 11:57:27;;;;;;;7.47;3.78;;;;;;;5.89;61.49;93790.66;5080234;28;20036;-79
2022/12/18 12:00:04;;;;;;;6.63;3.90;;;;;;;5.44;61.58;93778.16;5067969;28;20048;-78
2022/12/18 12:02:50;;;;;;;7.07;4.00;;;;;;;5.40;62.79;93788.22;5081327;28;20045;-78
2022/12/18 12:05:34;;;;;;;7.55;4.40;;;;;;;5.50;64.05;93777.28;5082905;28;20039;-80
2022/12/18 12:08:09;;;;;;;5.93;3.63;;;;;;;5.58;62.70;93771.78;5048357;28;20040;-80